Lucas Vestergaard

Chefscout - Viborg
22 Feb 2027
Montag
Verarbeitung

Persönlichkeit

Anpassungsfähigkeit (18) Ehrgeiz (6) Kontroverse (8) Loyalität (3) Druck (9) Professionalität (15) Fairness (5) Temperament (19)

Profil

Trainerstil Demokratisch
Lizenz Kontinentale C
Entschlossenheit 4
Menschenführung 12
Motivation 12
Disziplin 8
Arbeitszufriedenheit
50%
Ermüdung
0%
Rolle Chefscout
Gehalt 22.8K p/W
Vertrag 14.03.2029

Leistung

Verhalten Normal
Trainingseffektivität
24%
Spielerentwicklung
20%
Verletzungsprävention
30%
Taktische Umsetzung
45%

Letzte Ereignisse

Nahm an einer Scouting-Besprechung teil 14T her
Nahm an einer Scouting-Besprechung teil 21T her
Sprach sich gegen ein Transferziel aus 21T her
Nahm an einer Scouting-Besprechung teil 28T her
Sprach sich gegen ein Transferziel aus 28T her
Sprach sich gegen ein Transferziel aus 28T her
Nimmt an Fortbildung teil 28T her
Nimmt an Fortbildung teil 28T her

Aktuell beobachtet

112
Spieler Verein Status Fähigkeit Vertrauen Beobachtet Zuletzt beobachtet Letzte Stimme
Kenay Myrie FC Copenhagen Abgelehnt 90 / 101 69% 1 25.01.2027 Ablehnen
Ciprian Coman Pandurii Abgelehnt 114 / 125 66% 1 01.01.2027 Ablehnen
Khama Tau Black Aces Abgelehnt 116 / 116 68% 1 01.01.2027 Ablehnen
Aljoša Matko Ujpest Abgelehnt 117 / 117 66% 1 01.01.2027 Ablehnen
Vitalii Dakhnovskyi Bukovyna Aktiv 98 / 101 40% 2 31.12.2026 -
Mauro Rodrigues Botev Plovdiv Aktiv 101 / 105 40% 2 31.12.2026 -
Alexandr Sojka Viktoria Plzen Aktiv 113 / 129 40% 1 31.12.2026 -
Mfundo Vilakazi Kaizer Chiefs Aktiv 115 / 111 40% 5 30.12.2026 -
Alexander Lyng SonderjyskE Aktiv 107 / 119 40% 3 30.12.2026 -
Sayfallah Ltaief Cracovia Aktiv 122 / 121 40% 1 30.12.2026 -
Mduduzi Shabalala Kaizer Chiefs Aktiv 101 / 107 40% 5 29.12.2026 -
Angelo Gattermayer Wolfsberger AC Aktiv 130 / 126 40% 7 29.12.2026 -
José Martínes CSKA 1948 Aktiv 118 / 105 40% 1 29.12.2026 -
Jack Currie Oxford United Aktiv 119 / 119 40% 3 28.12.2026 -
Denil Castillo FC Midtjylland Aktiv 120 / 131 40% 2 28.12.2026 -
Danyil Alefirenko Chornomorets Aktiv 112 / 108 40% 1 28.12.2026 -
Kevin Yakob AGF Aktiv 116 / 122 40% 8 27.12.2026 -
Nikolas Dyhr Randers Aktiv 115 / 121 40% 3 27.12.2026 -
Diego Valencia Gornik Leczna Aktiv 115 / 107 40% 2 27.12.2026 -
Peter Federico Gornik Zabrze Aktiv 136 / 120 40% 5 26.12.2026 -
Edward Chilufya FC Midtjylland Aktiv 123 / 119 40% 4 26.12.2026 -
Juan Pablo Gallego Fehervar Aktiv 117 / 103 40% 2 26.12.2026 -
Akinkunmi Amoo Ismaily Abgelehnt 129 / 113 40% 9 25.12.2026 Ablehnen
Ben Wiles Milton Keynes Dons Aktiv 112 / 108 40% 1 22.12.2026 -
Armando Dobra Chesterfield Aktiv 110 / 106 40% 1 22.12.2026 -
Teboho Tau Ajax Cape Town Aktiv 104 / 120 40% 2 20.12.2026 -
David Buchta Radnicki 1923 Aktiv 121 / 120 40% 1 20.12.2026 -
Michal Kohút Banik Ostrava Aktiv 127 / 132 40% 1 19.12.2026 -
Kyreece Lisbie Colchester United Aktiv 117 / 109 40% 2 17.12.2026 -
Noah Ganaus OB Abgelehnt 122 / 107 40% 5 17.12.2026 Ablehnen
Robert Petkovic Zadar Aktiv 124 / 121 40% 2 16.12.2026 -
Ismahila Ouédraogo OB Aktiv 115 / 123 40% 3 16.12.2026 -
Martins Júnior Zira Aktiv 112 / 108 40% 1 16.12.2026 -
Adam Sørensen OB Aktiv 116 / 120 40% 3 13.12.2026 -
Sinoxolo Kwayiba Chippa United Aktiv 122 / 116 40% 1 11.12.2026 -
Kornelius Hansen Aalborg Aktiv 107 / 107 40% 1 11.12.2026 -
Keagan Hlatshwayo SuperSport United Aktiv 129 / 118 40% 3 09.12.2026 -
Lukáš Červ Viktoria Plzen Aktiv 129 / 131 40% 3 09.12.2026 -
Alejandro Organista Puebla Aktiv 118 / 102 40% 1 08.12.2026 -
Ronaldo Vásquez Sumgayit Aktiv 128 / 109 40% 1 08.12.2026 -
Charlie Webster Burton Albion Aktiv 113 / 117 40% 2 07.12.2026 -
Luis Palma Lech Aktiv 129 / 125 40% 2 06.12.2026 -
Lukas Klitten Hobro Aktiv 95 / 106 40% 2 06.12.2026 -
Brian Figueroa Morelia Aktiv 100 / 109 40% 3 04.12.2026 -
Bjarne Pudel Aalborg Aktiv 108 / 106 40% 2 03.12.2026 -
Andile Zungu Platinum Stars Aktiv 97 / 104 40% 1 03.12.2026 -
Ibrahim Tarek Masr El Makasa Aktiv 118 / 117 40% 2 30.11.2026 -
Aarón Molinas Defensa y Justicia Aktiv 126 / 127 40% 1 29.11.2026 -
Alejo Dramisino Honved Aktiv 131 / 109 40% 1 27.11.2026 -
Daniel Kyerewaa Reading Aktiv 115 / 111 40% 2 26.11.2026 -
Agustín Ramírez Inter Aktiv 97 / 111 40% 2 26.11.2026 -
Tornike Morchiladze HNK Rijeka Aktiv 117 / 114 40% 1 26.11.2026 -
Pedro Bravo FC Midtjylland Aktiv 113 / 123 40% 3 25.11.2026 -
Kristian Arnstad AGF Aktiv 132 / 128 40% 4 24.11.2026 -
Jens Petter Hauge Bodo/Glimt Aktiv 141 / 133 40% 2 23.11.2026 -
Tomás O'Connor Gimnasia y Esgrima Aktiv 110 / 127 40% 2 23.11.2026 -
Ronaldo Maarman University of Pretoria Aktiv 101 / 100 40% 2 21.11.2026 -
Juan Bezerra Zamalek Abgelehnt 123 / 114 40% 1 20.11.2026 Mehr Infos nötig
Andrei Cordea CFR Cluj Aktiv 111 / 125 40% 4 19.11.2026 -
Conrad Wallem Valerenga Aktiv 133 / 124 40% 1 19.11.2026 -
Valdemar Byskov FC Midtjylland Aktiv 107 / 122 40% 4 17.11.2026 -
Franko Kovačević Ferencvaros Aktiv 127 / 120 40% 2 17.11.2026 -
Kamogelo Sebelebele Orlando Pirates Aktiv 118 / 123 40% 1 15.11.2026 -
Victor Bak FC Midtjylland Aktiv 117 / 131 40% 1 15.11.2026 -
Justin Janssen FC Nordsjaelland Abgelehnt 107 / 118 40% 2 13.11.2026 Mehr Infos nötig
Carlos Gutiérrez Montana Aktiv 103 / 105 40% 1 13.11.2026 -
Håkon Evjen Bodo/Glimt Aktiv 136 / 133 40% 1 12.11.2026 -
Mads Frøkjær Brondby Aktiv 126 / 118 40% 3 10.11.2026 -
Razvan Puscas Astra Abgelehnt 128 / 118 40% 1 08.11.2026 Mehr Infos nötig
Rasmus Carstensen AGF Aktiv 124 / 127 40% 1 07.11.2026 -
Siyanda Ndlovu Hearts of Oak Aktiv 112 / 113 40% 1 07.11.2026 -
Emil Ceïde Rosenborg Aktiv 117 / 128 40% 1 06.11.2026 -
Marko Brest Olimpija Ljubljana Aktiv 119 / 109 40% 1 06.11.2026 -
Erick Ngcobo Black Aces Aktiv 94 / 108 40% 3 04.11.2026 -
Gift Zwane Platinum Stars Aktiv 102 / 116 40% 1 04.11.2026 -
Juho Lähteenmäki FC Nordsjaelland Aktiv 111 / 130 40% 1 31.10.2026 -
Filip Bundgaard Brondby Aktiv 114 / 118 40% 1 27.10.2026 -
Dominik Marczuk Real Salt Lake Aktiv 124 / 117 40% 1 27.10.2026 -
Ole-Didrik Blomberg Bodo/Glimt Aktiv 125 / 124 40% 1 26.10.2026 -
Ali Soliman Masr El Makasa Aktiv 127 / 125 40% 2 25.10.2026 -
Dimitar Mitrovski Olimpija Ljubljana Aktiv 125 / 109 40% 1 24.10.2026 -
Magnus Mattsson FC Copenhagen Aktiv 130 / 132 40% 1 21.10.2026 -
Kelvin John Aalborg Aktiv 102 / 111 40% 1 21.10.2026 Mehr Infos nötig
Josip Mitrović Slaven Belupo Aktiv 123 / 120 40% 1 18.10.2026 -
Villum Berthelsen FC Nordsjaelland Aktiv 109 / 121 40% 1 13.10.2026 -
Tshepang Moremi Orlando Pirates Aktiv 105 / 117 40% 1 12.10.2026 -
Kristoffer Velde Portland Timbers Aktiv 118 / 114 40% 1 09.10.2026 -
Elías Báez Atlanta United FC Aktiv 110 / 128 40% 1 08.10.2026 -
Jonathan Cañete Portuguesa Aktiv 113 / 115 40% 2 21.08.2026 -
Brandon Vázquez Austin FC Aktiv 109 / 121 40% 1 21.08.2026 -
José Barreto Fehervar Aktiv 104 / 106 40% 1 20.08.2026 -
Nathan Ordaz DC United Aktiv 97 / 106 40% 1 20.08.2026 -
Janni Serra AGF Aktiv 116 / 112 40% 1 19.08.2026 -
Rhian Brewster Derby County Aktiv 111 / 125 40% 1 19.08.2026 -
Harold Santiago Mosquera Cerro Porteno Aktiv 108 / 126 40% 1 19.08.2026 -
Marcelo Torres Gimnasia La Plata Aktiv 119 / 120 40% 2 18.08.2026 -
Viktor Claesson FC Copenhagen Aktiv 130 / 116 40% 1 18.08.2026 -
Derrick Etienne Jr. Toronto FC Aktiv 101 / 113 40% 1 18.08.2026 -
Lirim Qamili SonderjyskE Aktiv 111 / 105 40% 1 17.08.2026 -
Carles Gil New England Revolution Aktiv 129 / 141 40% 1 17.08.2026 -
Denis Bouanga Los Angeles Football Club Aktiv 121 / 137 40% 1 16.08.2026 -
Antoine Griezmann Orlando City Aktiv 158 / 155 40% 1 16.08.2026 -
Eric Ramírez Carabobo Aktiv 109 / 110 40% 1 14.08.2026 -
Ibrahim Aliyu Houston Dynamo Aktiv 130 / 112 40% 1 14.08.2026 -
Matthew Hoppe SonderjyskE Aktiv 114 / 118 40% 1 14.08.2026 -
Ramiro Ruiz Rodríguez Atlético Tucumán Aktiv 111 / 117 40% 1 12.08.2026 -
Themba Manyama Ajax Cape Town Aktiv 113 / 111 40% 1 06.08.2026 -
Michael Hoyos Aktiv 140 / 137 40% 1 06.08.2026 -
Adalberto Peñaranda Deportivo Tachira Aktiv 123 / 109 40% 1 04.08.2026 -
Alex Valera Universitario Aktiv 119 / 120 40% 1 04.08.2026 -
Edwuin Cetré Estudiantes Aktiv 114 / 115 40% 1 01.08.2026 -
Peter Shalulile Mamelodi Sundowns Aktiv 129 / 121 40% 1 01.08.2026 -